createdAt,value
2022-12-15T00:02:21.653Z,75.37
2022-12-15T00:05:08.740Z,75.68
2022-12-15T00:07:55.921Z,75.94
2022-12-15T00:10:42.762Z,76.05
2022-12-15T00:13:32.868Z,75.39
2022-12-15T00:16:19.705Z,75.73
2022-12-15T00:19:06.243Z,75.78
2022-12-15T00:21:52.782Z,76.18
2022-12-15T00:24:39.455Z,76.07
2022-12-15T00:27:26.131Z,76.42
2022-12-15T00:30:12.644Z,76.17
2022-12-15T00:32:59.125Z,75.96
2022-12-15T00:35:45.640Z,76.32
2022-12-15T00:38:34.245Z,76.07
2022-12-15T00:41:01.847Z,76.50
2022-12-15T00:43:32.812Z,75.97
2022-12-15T00:46:20.512Z,76.14
2022-12-15T00:48:47.765Z,76.14
2022-12-15T00:51:15.308Z,76.00
2022-12-15T00:54:02.646Z,76.49
2022-12-15T00:56:50.114Z,75.82
2022-12-15T00:59:37.138Z,76.45
2022-12-15T01:02:24.128Z,75.74
2022-12-15T01:05:10.686Z,75.81
2022-12-15T01:07:57.160Z,75.70
2022-12-15T01:10:43.938Z,76.60
2022-12-15T01:13:33.602Z,75.97
2022-12-15T01:16:20.414Z,76.82
2022-12-15T01:19:06.980Z,76.71
2022-12-15T01:21:34.948Z,76.56
2022-12-15T01:24:02.734Z,76.54
2022-12-15T01:26:31.009Z,76.38
2022-12-15T01:28:58.675Z,75.96
2022-12-15T01:31:27.106Z,76.05
2022-12-15T01:33:56.003Z,76.78
2022-12-15T01:36:24.009Z,76.30
2022-12-15T01:38:54.266Z,76.03
2022-12-15T01:41:23.466Z,76.09
2022-12-15T01:43:52.027Z,76.57
2022-12-15T01:46:23.588Z,76.04
2022-12-15T01:49:12.745Z,75.81
2022-12-15T01:51:44.962Z,76.26
2022-12-15T01:54:16.890Z,76.51
2022-12-15T01:56:46.615Z,75.82
2022-12-15T01:59:19.727Z,76.33
2022-12-15T02:01:49.754Z,75.78
2022-12-15T02:04:20.032Z,76.45
2022-12-15T02:06:46.735Z,75.78
2022-12-15T02:09:13.964Z,76.25
2022-12-15T02:17:19.927Z,76.37
2022-12-15T02:20:26.486Z,76.56
2022-12-15T02:28:13.393Z,76.28
2022-12-15T02:33:25.434Z,76.56
2022-12-15T02:38:35.478Z,75.70
2022-12-15T02:41:04.744Z,76.37
2022-12-15T02:43:36.391Z,76.62
2022-12-15T02:59:48.148Z,76.40
2022-12-15T03:02:16.049Z,76.28
2022-12-15T03:04:43.473Z,76.25
2022-12-15T03:07:13.337Z,76.67
2022-12-15T03:09:39.932Z,76.68
2022-12-15T03:12:06.949Z,76.50
2022-12-15T03:14:33.618Z,76.67
2022-12-15T03:17:00.830Z,76.05
2022-12-15T03:19:27.434Z,76.52
2022-12-15T03:21:54.198Z,76.84
2022-12-15T03:24:21.045Z,76.18
2022-12-15T03:26:50.203Z,76.69
2022-12-15T03:29:18.151Z,76.36
2022-12-15T03:31:45.460Z,75.92
2022-12-15T03:34:12.703Z,75.85
2022-12-15T03:36:39.340Z,75.80
2022-12-15T03:39:06.274Z,75.96
2022-12-15T03:41:32.886Z,76.25
2022-12-15T03:43:59.537Z,76.00
2022-12-15T03:46:26.943Z,76.21
2022-12-15T03:48:54.209Z,76.37
2022-12-15T03:51:21.488Z,75.81
2022-12-15T03:53:49.380Z,76.02
2022-12-15T03:56:16.986Z,76.22
2022-12-15T03:58:43.754Z,76.24
2022-12-15T04:01:26.348Z,75.92
2022-12-15T04:03:58.542Z,76.29
2022-12-15T04:06:27.681Z,75.94
2022-12-15T04:08:54.301Z,76.32
2022-12-15T04:11:21.149Z,76.04
2022-12-15T04:13:48.063Z,76.27
2022-12-15T04:16:19.594Z,76.00
2022-12-15T04:18:47.350Z,76.00
2022-12-15T04:21:13.907Z,76.34
2022-12-15T04:24:00.384Z,76.58
2022-12-15T04:26:46.835Z,76.36
2022-12-15T04:29:33.431Z,76.09
2022-12-15T04:32:19.934Z,76.22
2022-12-15T04:35:06.417Z,76.25
2022-12-15T04:37:52.990Z,76.53
2022-12-15T04:40:39.499Z,76.48
2022-12-15T04:43:25.995Z,76.44
2022-12-15T04:46:12.824Z,75.96
2022-12-15T04:48:59.348Z,76.01
2022-12-15T04:51:45.817Z,76.31
2022-12-15T04:54:32.386Z,75.98
2022-12-15T04:57:18.860Z,76.44
2022-12-15T05:00:05.445Z,76.39
2022-12-15T05:02:52.028Z,76.32
2022-12-15T05:05:38.531Z,76.43
2022-12-15T05:08:25.174Z,76.35
2022-12-15T05:11:11.760Z,76.35
2022-12-15T05:13:58.293Z,76.25
2022-12-15T05:16:44.991Z,76.48
2022-12-15T05:19:31.483Z,76.13
2022-12-15T05:22:17.998Z,76.25
2022-12-15T05:25:04.483Z,75.97
2022-12-15T05:27:50.981Z,76.10
2022-12-15T05:30:37.559Z,76.18
2022-12-15T05:33:05.454Z,76.22
2022-12-15T05:35:32.024Z,76.44
2022-12-15T05:37:58.592Z,76.10
2022-12-15T05:40:25.142Z,76.21
2022-12-15T05:42:51.707Z,76.29
2022-12-15T05:45:18.317Z,76.21
2022-12-15T05:47:51.594Z,76.05
2022-12-15T05:50:18.389Z,75.94
2022-12-15T05:52:49.157Z,76.05
2022-12-15T05:55:17.512Z,76.10
2022-12-15T05:57:44.092Z,76.22
2022-12-15T06:00:11.091Z,76.05
2022-12-15T06:02:37.735Z,76.11
2022-12-15T06:05:04.733Z,76.03
2022-12-15T06:07:31.354Z,76.28
2022-12-15T06:09:57.928Z,76.82
2022-12-15T06:12:24.468Z,76.50
2022-12-15T06:14:51.037Z,76.22
2022-12-15T06:17:17.582Z,76.48
2022-12-15T06:19:44.162Z,76.38
2022-12-15T06:22:10.806Z,76.04
2022-12-15T06:24:37.405Z,76.31
2022-12-15T06:27:04.620Z,76.40
2022-12-15T06:29:31.359Z,76.06
2022-12-15T06:31:58.004Z,76.09
2022-12-15T06:34:24.858Z,76.61
2022-12-15T06:36:51.433Z,76.09
2022-12-15T06:39:18.318Z,75.90
2022-12-15T06:41:45.397Z,75.87
2022-12-15T06:44:15.047Z,76.08
2022-12-15T06:46:42.162Z,76.11
2022-12-15T06:49:09.181Z,76.16
2022-12-15T06:51:36.458Z,76.11
2022-12-15T06:54:03.034Z,76.60
2022-12-15T06:56:34.839Z,76.13
2022-12-15T06:59:03.596Z,76.15
2022-12-15T07:01:31.328Z,76.05
2022-12-15T07:04:03.223Z,76.04
2022-12-15T07:06:36.692Z,76.08
2022-12-15T07:09:05.107Z,76.11
2022-12-15T07:11:31.880Z,76.19
2022-12-15T07:13:58.556Z,75.74
2022-12-15T07:16:25.251Z,76.10
2022-12-15T07:18:52.354Z,76.01
2022-12-15T07:21:18.974Z,76.10
2022-12-15T07:23:54.815Z,76.07
2022-12-15T07:26:22.532Z,75.83
2022-12-15T07:28:49.359Z,75.85
2022-12-15T07:31:16.196Z,75.72
2022-12-15T07:33:43.229Z,75.97
2022-12-15T07:36:11.074Z,75.94
2022-12-15T07:38:37.887Z,76.02
2022-12-15T07:41:06.886Z,76.24
2022-12-15T07:43:34.256Z,76.00
2022-12-15T07:46:01.832Z,76.27
2022-12-15T07:48:29.271Z,75.73
2022-12-15T07:51:05.166Z,76.03
2022-12-15T07:53:36.094Z,75.96
2022-12-15T07:56:09.308Z,76.00
2022-12-15T07:58:37.195Z,76.10
2022-12-15T08:01:10.581Z,75.72
2022-12-15T08:03:39.134Z,75.88
2022-12-15T08:06:08.890Z,75.97
2022-12-15T08:08:36.066Z,76.00
2022-12-15T08:11:05.637Z,75.89
2022-12-15T08:16:21.660Z,76.01
2022-12-15T08:18:49.128Z,75.90
2022-12-15T08:21:15.884Z,76.00
2022-12-15T08:23:42.544Z,76.26
2022-12-15T08:26:13.274Z,76.13
2022-12-15T08:28:41.041Z,75.77
2022-12-15T08:31:12.187Z,75.92
2022-12-15T08:33:39.466Z,76.32
2022-12-15T08:36:10.201Z,75.07
2022-12-15T08:38:39.310Z,75.76
2022-12-15T08:43:49.175Z,74.82
2022-12-15T08:46:18.020Z,74.30
2022-12-15T08:48:45.362Z,73.74
2022-12-15T08:51:12.196Z,73.57
2022-12-15T08:53:39.001Z,72.93
2022-12-15T08:56:09.436Z,72.17
2022-12-15T08:58:36.780Z,72.72
2022-12-15T09:01:06.389Z,71.36
2022-12-15T09:03:34.884Z,70.65
2022-12-15T09:06:04.099Z,71.58
2022-12-15T09:08:31.213Z,70.28
2022-12-15T09:10:59.844Z,69.92
2022-12-15T09:13:27.057Z,68.93
2022-12-15T09:16:10.251Z,67.87
2022-12-15T09:18:37.176Z,66.65
2022-12-15T09:21:05.672Z,65.57
2022-12-15T09:23:33.117Z,66.03
2022-12-15T09:26:01.571Z,64.41
2022-12-15T09:28:30.007Z,64.49
2022-12-15T09:33:52.319Z,63.19
2022-12-15T09:36:19.627Z,61.69
2022-12-15T09:38:46.241Z,60.32
2022-12-15T09:49:13.915Z,56.63
2022-12-15T09:51:48.983Z,56.06
2022-12-15T09:54:15.625Z,55.69
2022-12-15T09:56:50.598Z,54.47
2022-12-15T09:59:33.329Z,55.24
2022-12-15T10:02:34.323Z,53.80
2022-12-15T10:07:50.600Z,51.65
2022-12-15T10:10:29.704Z,50.73
2022-12-15T10:13:02.925Z,49.88
2022-12-15T10:15:35.805Z,48.79
2022-12-15T10:20:38.634Z,47.74
2022-12-15T10:23:13.350Z,46.78
2022-12-15T10:25:47.380Z,46.39
2022-12-15T10:34:18.621Z,42.35
2022-12-15T10:36:51.879Z,41.74
2022-12-15T10:39:21.232Z,41.25
2022-12-15T10:42:25.208Z,40.36
2022-12-15T10:44:54.903Z,42.44
2022-12-15T10:50:22.614Z,42.87
2022-12-15T10:52:51.930Z,45.59
2022-12-15T10:55:40.850Z,45.30
2022-12-15T10:58:23.630Z,45.87
2022-12-15T11:01:09.061Z,46.39
2022-12-15T11:03:39.167Z,47.38
2022-12-15T11:06:18.139Z,47.75
2022-12-15T11:08:48.437Z,47.82
2022-12-15T11:11:54.518Z,49.37
2022-12-15T11:14:27.221Z,49.19
2022-12-15T11:16:56.702Z,50.84
2022-12-15T11:19:39.005Z,49.05
2022-12-15T11:22:18.908Z,50.79
2022-12-15T11:24:52.638Z,50.84
2022-12-15T11:27:28.627Z,52.40
2022-12-15T11:32:38.966Z,54.58
2022-12-15T11:35:13.693Z,53.87
2022-12-15T11:37:46.898Z,53.81
2022-12-15T11:43:12.882Z,53.12
2022-12-15T11:48:33.261Z,53.06
2022-12-15T11:56:43.195Z,54.29
2022-12-15T12:04:30.732Z,54.65
2022-12-15T12:07:27.010Z,55.08
2022-12-15T12:12:40.907Z,55.49
2022-12-15T12:15:39.085Z,55.56
2022-12-15T12:18:13.134Z,56.07
2022-12-15T12:20:48.019Z,56.41
2022-12-15T12:23:22.407Z,56.02
2022-12-15T12:26:19.094Z,56.80
2022-12-15T12:31:36.005Z,56.90
2022-12-15T12:34:10.908Z,57.12
2022-12-15T12:36:38.207Z,58.32
2022-12-15T12:39:05.395Z,58.31
2022-12-15T12:41:41.126Z,57.61
2022-12-15T12:46:54.107Z,58.57
2022-12-15T12:52:03.565Z,59.18
2022-12-15T13:02:47.143Z,60.33
2022-12-15T13:05:34.840Z,59.61
2022-12-15T13:10:42.720Z,59.36
2022-12-15T13:16:11.900Z,61.03
2022-12-15T13:19:02.154Z,61.31
2022-12-15T13:24:45.748Z,60.73
2022-12-15T13:27:17.355Z,61.53
2022-12-15T13:30:02.983Z,60.49
2022-12-15T13:48:41.615Z,61.75
2022-12-15T13:59:26.587Z,63.01
2022-12-15T14:01:53.959Z,62.96
2022-12-15T14:04:22.260Z,63.31
2022-12-15T14:09:38.375Z,63.11
2022-12-15T14:12:08.439Z,63.26
2022-12-15T14:14:42.627Z,63.45
2022-12-15T14:17:15.412Z,63.43
2022-12-15T14:19:44.392Z,63.14
2022-12-15T14:27:52.959Z,63.24
2022-12-15T14:33:12.028Z,63.57
2022-12-15T14:35:44.124Z,63.51
2022-12-15T14:38:21.620Z,63.60
2022-12-15T14:40:51.951Z,64.51
2022-12-15T14:43:22.797Z,63.83
2022-12-15T14:46:07.803Z,63.70
2022-12-15T14:48:53.630Z,64.00
2022-12-15T14:51:21.506Z,65.02
2022-12-15T14:53:53.261Z,64.93
2022-12-15T15:04:31.276Z,65.29
2022-12-15T15:07:07.794Z,64.79
2022-12-15T15:09:43.887Z,64.95
2022-12-15T15:12:47.233Z,65.10
2022-12-15T15:15:16.012Z,65.92
2022-12-15T15:17:52.580Z,65.65
2022-12-15T15:20:27.239Z,65.97
2022-12-15T15:25:54.872Z,65.87
2022-12-15T15:31:35.266Z,66.58
2022-12-15T15:34:07.686Z,66.03
2022-12-15T15:36:36.507Z,66.34
2022-12-15T15:39:12.835Z,66.33
2022-12-15T15:41:39.411Z,66.67
2022-12-15T15:44:12.474Z,66.51
2022-12-15T15:46:48.394Z,66.63
2022-12-15T15:49:19.158Z,66.63
2022-12-15T15:51:46.164Z,66.80
2022-12-15T15:54:17.083Z,67.75
2022-12-15T15:56:43.683Z,67.20
2022-12-15T15:59:13.648Z,67.19
2022-12-15T16:01:40.791Z,67.66
2022-12-15T16:04:07.606Z,67.63
2022-12-15T16:06:34.979Z,67.65
2022-12-15T16:09:02.048Z,67.85
2022-12-15T16:11:30.997Z,67.79
2022-12-15T16:13:57.767Z,68.36
2022-12-15T16:16:30.006Z,67.93
2022-12-15T16:18:56.644Z,68.33
2022-12-15T16:21:27.355Z,68.20
2022-12-15T16:23:55.323Z,68.72
2022-12-15T16:26:28.889Z,68.92
2022-12-15T16:28:56.325Z,68.87
2022-12-15T16:31:41.995Z,68.90
2022-12-15T16:34:08.834Z,68.96
2022-12-15T16:36:35.444Z,68.66
2022-12-15T16:39:02.403Z,69.28
2022-12-15T16:41:28.964Z,69.67
2022-12-15T16:43:55.531Z,70.23
2022-12-15T16:46:22.131Z,69.40
2022-12-15T16:48:48.904Z,69.81
2022-12-15T16:51:39.608Z,69.74
2022-12-15T16:54:07.252Z,69.82
2022-12-15T16:56:33.890Z,70.33
2022-12-15T16:59:31.400Z,70.77
2022-12-15T17:01:48.349Z,70.74
2022-12-15T17:04:16.706Z,70.80
2022-12-15T17:06:43.650Z,71.45
2022-12-15T17:09:18.940Z,71.58
2022-12-15T17:11:45.625Z,72.08
2022-12-15T17:14:12.180Z,71.51
2022-12-15T17:16:38.777Z,72.51
2022-12-15T17:19:05.351Z,72.62
2022-12-15T17:21:39.275Z,72.10
2022-12-15T17:24:08.895Z,72.78
2022-12-15T17:26:37.059Z,72.17
2022-12-15T17:29:13.180Z,72.75
2022-12-15T17:31:39.828Z,72.73
2022-12-15T17:36:59.507Z,73.53
2022-12-15T17:39:27.541Z,73.70
2022-12-15T17:42:00.499Z,73.43
2022-12-15T17:44:33.751Z,73.58
2022-12-15T17:47:02.119Z,73.69
2022-12-15T17:49:34.677Z,73.71
2022-12-15T17:52:05.231Z,74.02
2022-12-15T17:54:31.908Z,73.69
2022-12-15T17:56:58.716Z,73.92
2022-12-15T17:59:25.377Z,73.50
2022-12-15T18:01:52.375Z,73.46
2022-12-15T18:04:19.162Z,73.73
2022-12-15T18:06:46.090Z,73.61
2022-12-15T18:09:17.486Z,73.55
2022-12-15T18:11:46.800Z,74.10
2022-12-15T18:14:16.515Z,73.90
2022-12-15T18:16:45.041Z,73.99
2022-12-15T18:19:11.942Z,74.03
2022-12-15T18:21:38.663Z,74.67
2022-12-15T18:24:15.059Z,74.85
2022-12-15T18:26:41.664Z,74.84
2022-12-15T18:29:14.165Z,74.76
2022-12-15T18:31:42.263Z,74.81
2022-12-15T18:34:12.870Z,74.47
2022-12-15T18:36:40.123Z,74.42
2022-12-15T18:39:23.921Z,74.42
2022-12-15T18:41:51.376Z,74.71
2022-12-15T18:44:23.968Z,74.80
2022-12-15T18:46:50.892Z,75.47
2022-12-15T18:49:19.409Z,75.17
2022-12-15T18:51:47.001Z,74.73
2022-12-15T18:54:18.156Z,74.77
2022-12-15T18:56:44.869Z,74.43
2022-12-15T18:59:15.859Z,74.27
2022-12-15T19:01:43.882Z,74.23
2022-12-15T19:04:10.821Z,74.63
2022-12-15T19:06:40.425Z,73.75
2022-12-15T19:09:14.518Z,73.81
2022-12-15T19:12:01.170Z,73.86
2022-12-15T19:14:43.468Z,74.31
2022-12-15T19:17:31.485Z,73.64
2022-12-15T19:20:18.160Z,73.83
2022-12-15T19:22:46.560Z,73.61
2022-12-15T19:25:25.353Z,73.45
2022-12-15T19:27:58.687Z,73.65
2022-12-15T19:30:28.435Z,73.79
2022-12-15T19:32:55.099Z,73.54
2022-12-15T19:35:23.011Z,73.47
2022-12-15T19:37:50.086Z,73.42
2022-12-15T19:40:22.299Z,73.81
2022-12-15T19:42:49.864Z,73.37
2022-12-15T19:45:18.635Z,73.72
2022-12-15T19:47:45.312Z,73.55
2022-12-15T19:50:17.118Z,73.62
2022-12-15T19:52:47.155Z,73.95
2022-12-15T19:55:16.392Z,73.27
2022-12-15T19:57:43.880Z,73.41
2022-12-15T20:00:17.990Z,73.52
2022-12-15T20:02:44.660Z,73.53
2022-12-15T20:05:11.407Z,73.79
2022-12-15T20:07:38.181Z,73.96
2022-12-15T20:10:13.411Z,73.61
2022-12-15T20:12:42.366Z,73.85
2022-12-15T20:15:19.313Z,73.95
2022-12-15T20:17:46.044Z,73.46
2022-12-15T20:20:16.115Z,73.85
2022-12-15T20:22:45.421Z,73.97
2022-12-15T20:25:17.440Z,73.38
2022-12-15T20:27:44.517Z,73.56
2022-12-15T20:30:18.447Z,73.71
2022-12-15T20:32:44.996Z,73.55
2022-12-15T20:35:14.744Z,73.74
2022-12-15T20:37:41.315Z,73.60
2022-12-15T20:42:56.442Z,74.34
2022-12-15T20:45:25.552Z,74.05
2022-12-15T20:47:53.861Z,74.08
2022-12-15T20:53:01.437Z,74.18
2022-12-15T20:55:28.614Z,74.10
2022-12-15T20:57:55.551Z,74.23
2022-12-15T21:00:22.575Z,73.55
2022-12-15T21:02:50.507Z,73.94
2022-12-15T21:05:22.489Z,74.50
2022-12-15T21:07:50.129Z,73.97
2022-12-15T21:10:18.305Z,74.03
2022-12-15T21:12:47.616Z,73.95
2022-12-15T21:15:23.389Z,74.39
2022-12-15T21:18:11.004Z,73.95
2022-12-15T21:20:41.596Z,74.69
2022-12-15T21:23:19.771Z,74.33
2022-12-15T21:25:47.338Z,74.55
2022-12-15T21:28:14.582Z,74.16
2022-12-15T21:30:41.739Z,74.14
2022-12-15T21:33:08.451Z,74.66
2022-12-15T21:35:36.469Z,73.84
2022-12-15T21:38:04.583Z,74.58
2022-12-15T21:40:31.258Z,75.07
2022-12-15T21:42:58.096Z,74.60
2022-12-15T21:45:26.679Z,74.84
2022-12-15T21:48:13.700Z,74.46
2022-12-15T21:50:43.297Z,74.99
2022-12-15T21:53:15.913Z,75.43
2022-12-15T21:55:44.530Z,74.73
2022-12-15T21:58:18.612Z,75.35
2022-12-15T22:00:45.901Z,75.42
2022-12-15T22:03:12.886Z,74.86
2022-12-15T22:05:40.007Z,75.31
2022-12-15T22:08:17.234Z,75.61
2022-12-15T22:10:45.703Z,74.72
2022-12-15T22:13:17.766Z,75.43
2022-12-15T22:15:44.986Z,75.27
2022-12-15T22:18:19.335Z,75.34
2022-12-15T22:20:48.252Z,75.13
2022-12-15T22:23:16.863Z,75.50
2022-12-15T22:25:43.730Z,75.62
2022-12-15T22:28:18.794Z,74.94
2022-12-15T22:30:45.652Z,75.46
2022-12-15T22:33:21.700Z,75.04
2022-12-15T22:35:50.685Z,75.53
2022-12-15T22:38:18.955Z,76.04
2022-12-15T22:40:49.121Z,76.21
2022-12-15T22:46:04.939Z,76.64
2022-12-15T22:48:35.284Z,76.63
2022-12-15T22:51:02.063Z,77.48
2022-12-15T22:53:31.692Z,77.10
2022-12-15T22:55:59.771Z,77.25
2022-12-15T22:58:34.868Z,77.78
2022-12-15T23:01:02.139Z,77.57
2022-12-15T23:03:29.979Z,77.61
2022-12-15T23:05:56.858Z,77.60
2022-12-15T23:08:23.530Z,76.97
2022-12-15T23:11:09.991Z,76.98
2022-12-15T23:13:36.622Z,77.13
2022-12-15T23:16:20.416Z,77.40
2022-12-15T23:18:51.672Z,77.42
2022-12-15T23:21:19.429Z,76.97
2022-12-15T23:23:46.143Z,77.28
2022-12-15T23:26:13.864Z,77.33
2022-12-15T23:28:41.342Z,77.21
2022-12-15T23:31:08.930Z,76.81
2022-12-15T23:33:36.423Z,76.12
2022-12-15T23:36:03.391Z,76.43
2022-12-15T23:38:30.431Z,76.39
2022-12-15T23:40:58.018Z,76.36
2022-12-15T23:43:27.497Z,76.44
2022-12-15T23:48:37.969Z,76.81
2022-12-15T23:51:05.698Z,76.78
2022-12-15T23:53:33.229Z,77.18
2022-12-15T23:56:18.841Z,77.26
2022-12-15T23:58:46.876Z,76.83
